sensor_id;sensor_type;location;lat;lon;timestamp;P1;P2;P0
77692;PMS5003;66984;47.404;18.836;2024-03-25T00:00:48;3.00;3.00;1.00
77692;PMS5003;66984;47.404;18.836;2024-03-25T00:01:49;2.00;2.00;0.33
77692;PMS5003;66984;47.404;18.836;2024-03-25T00:02:51;3.00;3.00;1.00
77692;PMS5003;66984;47.404;18.836;2024-03-25T00:03:52;1.00;1.00;1.00
77692;PMS5003;66984;47.404;18.836;2024-03-25T00:04:52;2.00;2.00;0.00
77692;PMS5003;66984;47.404;18.836;2024-03-25T00:05:53;3.00;3.00;0.00
77692;PMS5003;66984;47.404;18.836;2024-03-25T00:06:54;4.00;4.00;0.00
77692;PMS5003;66984;47.404;18.836;2024-03-25T00:07:55;3.00;3.00;0.00
77692;PMS5003;66984;47.404;18.836;2024-03-25T00:08:55;1.00;1.00;0.00
77692;PMS5003;66984;47.404;18.836;2024-03-25T00:09:57;3.00;3.00;0.00
77692;PMS5003;66984;47.404;18.836;2024-03-25T00:10:59;2.50;2.00;0.00
77692;PMS5003;66984;47.404;18.836;2024-03-25T00:12:00;2.00;2.00;0.00
77692;PMS5003;66984;47.404;18.836;2024-03-25T00:13:01;1.00;1.00;0.00
77692;PMS5003;66984;47.404;18.836;2024-03-25T00:14:01;3.00;3.00;0.00
77692;PMS5003;66984;47.404;18.836;2024-03-25T00:15:02;4.00;4.00;0.00
77692;PMS5003;66984;47.404;18.836;2024-03-25T00:16:03;3.50;3.50;0.00
77692;PMS5003;66984;47.404;18.836;2024-03-25T00:17:05;3.00;3.00;0.00
77692;PMS5003;66984;47.404;18.836;2024-03-25T00:18:07;4.00;2.75;0.00
77692;PMS5003;66984;47.404;18.836;2024-03-25T00:19:08;4.00;4.00;0.00
77692;PMS5003;66984;47.404;18.836;2024-03-25T00:20:09;3.00;3.00;0.00
77692;PMS5003;66984;47.404;18.836;2024-03-25T00:21:10;3.50;3.00;0.00
77692;PMS5003;66984;47.404;18.836;2024-03-25T00:22:10;3.00;1.67;0.00
77692;PMS5003;66984;47.404;18.836;2024-03-25T00:23:11;2.00;1.00;0.00
77692;PMS5003;66984;47.404;18.836;2024-03-25T00:24:12;2.00;2.00;0.00
77692;PMS5003;66984;47.404;18.836;2024-03-25T00:25:13;4.00;4.00;0.00
77692;PMS5003;66984;47.404;18.836;2024-03-25T00:26:13;4.00;4.00;0.00
77692;PMS5003;66984;47.404;18.836;2024-03-25T00:27:14;4.33;4.00;0.00
77692;PMS5003;66984;47.404;18.836;2024-03-25T00:28:15;4.00;4.00;0.00
77692;PMS5003;66984;47.404;18.836;2024-03-25T00:29:19;3.75;3.50;0.00
77692;PMS5003;66984;47.404;18.836;2024-03-25T00:30:20;3.33;3.00;0.00
77692;PMS5003;66984;47.404;18.836;2024-03-25T00:31:20;3.33;3.00;0.00
77692;PMS5003;66984;47.404;18.836;2024-03-25T00:32:21;4.00;4.00;1.00
77692;PMS5003;66984;47.404;18.836;2024-03-25T00:33:22;4.00;3.00;1.00
77692;PMS5003;66984;47.404;18.836;2024-03-25T00:34:22;4.00;3.00;1.00
77692;PMS5003;66984;47.404;18.836;2024-03-25T00:35:23;3.00;3.00;1.00
77692;PMS5003;66984;47.404;18.836;2024-03-25T00:36:24;3.67;3.00;1.00
77692;PMS5003;66984;47.404;18.836;2024-03-25T00:37:25;4.00;3.67;1.00
77692;PMS5003;66984;47.404;18.836;2024-03-25T00:38:26;4.00;4.00;1.00
77692;PMS5003;66984;47.404;18.836;2024-03-25T00:39:27;3.75;3.75;1.00
77692;PMS5003;66984;47.404;18.836;2024-03-25T00:40:28;4.75;4.25;0.75
77692;PMS5003;66984;47.404;18.836;2024-03-25T00:41:28;4.00;4.00;1.33
77692;PMS5003;66984;47.404;18.836;2024-03-25T00:42:29;5.00;5.00;2.00
77692;PMS5003;66984;47.404;18.836;2024-03-25T00:43:30;4.33;4.00;2.00
77692;PMS5003;66984;47.404;18.836;2024-03-25T00:44:31;4.00;4.00;2.00
77692;PMS5003;66984;47.404;18.836;2024-03-25T00:45:31;4.00;4.00;3.00
77692;PMS5003;66984;47.404;18.836;2024-03-25T00:46:32;4.00;4.00;2.00
77692;PMS5003;66984;47.404;18.836;2024-03-25T00:47:33;3.33;3.33;2.00
77692;PMS5003;66984;47.404;18.836;2024-03-25T00:48:33;3.75;3.75;1.00
77692;PMS5003;66984;47.404;18.836;2024-03-25T00:49:34;4.00;4.00;1.00
77692;PMS5003;66984;47.404;18.836;2024-03-25T00:50:35;4.00;3.00;1.00
77692;PMS5003;66984;47.404;18.836;2024-03-25T00:51:36;3.00;3.00;0.00
77692;PMS5003;66984;47.404;18.836;2024-03-25T00:52:37;4.00;4.00;0.00
77692;PMS5003;66984;47.404;18.836;2024-03-25T00:53:38;3.00;3.00;0.00
77692;PMS5003;66984;47.404;18.836;2024-03-25T00:54:39;4.00;3.00;0.00
77692;PMS5003;66984;47.404;18.836;2024-03-25T00:55:39;3.33;3.33;0.00
77692;PMS5003;66984;47.404;18.836;2024-03-25T00:56:40;4.00;4.00;0.50
77692;PMS5003;66984;47.404;18.836;2024-03-25T00:57:41;3.00;3.00;1.00
77692;PMS5003;66984;47.404;18.836;2024-03-25T00:58:42;4.00;4.00;0.00
77692;PMS5003;66984;47.404;18.836;2024-03-25T00:59:42;3.33;3.33;2.00
77692;PMS5003;66984;47.404;18.836;2024-03-25T01:00:43;3.33;3.33;3.00
77692;PMS5003;66984;47.404;18.836;2024-03-25T01:01:44;5.33;5.33;1.67
77692;PMS5003;66984;47.404;18.836;2024-03-25T01:02:45;4.00;3.00;2.00
77692;PMS5003;66984;47.404;18.836;2024-03-25T01:03:45;4.00;3.00;2.00
77692;PMS5003;66984;47.404;18.836;2024-03-25T01:04:46;6.00;6.00;3.00
77692;PMS5003;66984;47.404;18.836;2024-03-25T01:05:47;4.00;4.00;2.00
77692;PMS5003;66984;47.404;18.836;2024-03-25T01:06:48;4.00;4.00;1.00
77692;PMS5003;66984;47.404;18.836;2024-03-25T01:07:49;5.00;5.00;1.00
77692;PMS5003;66984;47.404;18.836;2024-03-25T01:08:49;4.00;4.00;1.00
77692;PMS5003;66984;47.404;18.836;2024-03-25T01:09:51;4.25;3.50;1.00
77692;PMS5003;66984;47.404;18.836;2024-03-25T01:10:51;3.33;3.00;1.00
77692;PMS5003;66984;47.404;18.836;2024-03-25T01:11:52;5.33;5.33;2.00
77692;PMS5003;66984;47.404;18.836;2024-03-25T01:12:53;4.67;4.67;3.00
77692;PMS5003;66984;47.404;18.836;2024-03-25T01:13:53;4.00;4.00;2.00
77692;PMS5003;66984;47.404;18.836;2024-03-25T01:14:54;4.00;4.00;3.00
77692;PMS5003;66984;47.404;18.836;2024-03-25T01:15:55;4.00;4.00;3.00
77692;PMS5003;66984;47.404;18.836;2024-03-25T01:16:56;3.00;3.00;2.00
77692;PMS5003;66984;47.404;18.836;2024-03-25T01:17:57;5.75;4.75;2.00
77692;PMS5003;66984;47.404;18.836;2024-03-25T01:18:58;2.00;2.00;0.00
77692;PMS5003;66984;47.404;18.836;2024-03-25T01:19:59;3.00;3.00;0.00
77692;PMS5003;66984;47.404;18.836;2024-03-25T01:21:00;5.00;5.00;1.00
77692;PMS5003;66984;47.404;18.836;2024-03-25T01:22:01;5.00;4.00;1.00
77692;PMS5003;66984;47.404;18.836;2024-03-25T01:23:01;4.33;4.00;1.00
77692;PMS5003;66984;47.404;18.836;2024-03-25T01:24:02;3.67;3.33;0.33
77692;PMS5003;66984;47.404;18.836;2024-03-25T01:25:03;3.00;3.00;1.00
77692;PMS5003;66984;47.404;18.836;2024-03-25T01:26:04;3.00;3.00;1.00
77692;PMS5003;66984;47.404;18.836;2024-03-25T01:27:05;3.00;3.00;1.00
77692;PMS5003;66984;47.404;18.836;2024-03-25T01:28:06;3.00;3.00;1.00
77692;PMS5003;66984;47.404;18.836;2024-03-25T01:29:07;3.00;3.00;1.00
77692;PMS5003;66984;47.404;18.836;2024-03-25T01:30:08;3.00;2.75;0.00
77692;PMS5003;66984;47.404;18.836;2024-03-25T01:31:09;5.75;5.00;0.00
77692;PMS5003;66984;47.404;18.836;2024-03-25T01:32:09;3.67;3.00;1.00
77692;PMS5003;66984;47.404;18.836;2024-03-25T01:33:10;3.00;3.00;1.00
77692;PMS5003;66984;47.404;18.836;2024-03-25T01:34:11;5.00;3.00;1.00
77692;PMS5003;66984;47.404;18.836;2024-03-25T01:35:12;5.00;3.00;1.00
77692;PMS5003;66984;47.404;18.836;2024-03-25T01:36:12;4.67;3.00;1.00
77692;PMS5003;66984;47.404;18.836;2024-03-25T01:37:18;4.00;3.00;1.50
77692;PMS5003;66984;47.404;18.836;2024-03-25T01:38:18;3.00;3.00;1.00
77692;PMS5003;66984;47.404;18.836;2024-03-25T01:39:19;4.00;4.00;1.00
77692;PMS5003;66984;47.404;18.836;2024-03-25T01:40:20;3.67;3.67;1.00
77692;PMS5003;66984;47.404;18.836;2024-03-25T01:41:21;4.00;3.00;1.00
77692;PMS5003;66984;47.404;18.836;2024-03-25T01:42:25;3.00;3.00;2.00
77692;PMS5003;66984;47.404;18.836;2024-03-25T01:43:27;3.75;3.00;1.00
77692;PMS5003;66984;47.404;18.836;2024-03-25T01:44:28;5.00;5.00;1.00
77692;PMS5003;66984;47.404;18.836;2024-03-25T01:45:30;3.00;3.00;2.00
77692;PMS5003;66984;47.404;18.836;2024-03-25T01:46:33;2.00;2.00;0.50
77692;PMS5003;66984;47.404;18.836;2024-03-25T01:47:33;3.67;3.00;0.00
77692;PMS5003;66984;47.404;18.836;2024-03-25T01:48:36;3.00;3.00;1.25
77692;PMS5003;66984;47.404;18.836;2024-03-25T01:49:36;3.00;3.00;2.00
77692;PMS5003;66984;47.404;18.836;2024-03-25T01:50:39;3.00;3.00;1.00
77692;PMS5003;66984;47.404;18.836;2024-03-25T01:51:43;3.00;3.00;0.00
77692;PMS5003;66984;47.404;18.836;2024-03-25T01:52:44;3.00;3.00;1.00
77692;PMS5003;66984;47.404;18.836;2024-03-25T01:53:45;2.67;2.67;0.00
77692;PMS5003;66984;47.404;18.836;2024-03-25T01:54:47;3.00;3.00;0.50
77692;PMS5003;66984;47.404;18.836;2024-03-25T01:55:49;3.00;3.00;0.00
77692;PMS5003;66984;47.404;18.836;2024-03-25T01:56:54;2.00;2.00;0.00
77692;PMS5003;66984;47.404;18.836;2024-03-25T01:57:56;3.00;3.00;0.00
77692;PMS5003;66984;47.404;18.836;2024-03-25T01:58:57;3.00;3.00;0.33
77692;PMS5003;66984;47.404;18.836;2024-03-25T01:59:58;4.75;4.75;2.00
77692;PMS5003;66984;47.404;18.836;2024-03-25T02:00:59;3.00;3.00;2.00
77692;PMS5003;66984;47.404;18.836;2024-03-25T02:02:01;3.00;3.00;0.00
77692;PMS5003;66984;47.404;18.836;2024-03-25T02:03:02;3.00;3.00;0.00
77692;PMS5003;66984;47.404;18.836;2024-03-25T02:04:03;4.75;4.75;0.50
77692;PMS5003;66984;47.404;18.836;2024-03-25T02:05:04;3.00;2.75;1.00
77692;PMS5003;66984;47.404;18.836;2024-03-25T02:06:06;3.00;3.00;1.00
77692;PMS5003;66984;47.404;18.836;2024-03-25T02:07:12;3.00;3.00;1.00
77692;PMS5003;66984;47.404;18.836;2024-03-25T02:08:14;5.00;4.00;0.00
77692;PMS5003;66984;47.404;18.836;2024-03-25T02:09:15;3.00;3.00;1.00
77692;PMS5003;66984;47.404;18.836;2024-03-25T02:10:16;3.00;3.00;0.00
77692;PMS5003;66984;47.404;18.836;2024-03-25T02:11:17;4.00;4.00;0.00
77692;PMS5003;66984;47.404;18.836;2024-03-25T02:12:18;4.00;3.00;0.75
77692;PMS5003;66984;47.404;18.836;2024-03-25T02:13:19;3.00;3.00;1.00
77692;PMS5003;66984;47.404;18.836;2024-03-25T02:14:21;3.00;3.00;1.00
77692;PMS5003;66984;47.404;18.836;2024-03-25T02:15:23;3.25;3.25;1.00
77692;PMS5003;66984;47.404;18.836;2024-03-25T02:16:24;3.00;3.00;1.00
77692;PMS5003;66984;47.404;18.836;2024-03-25T02:17:24;1.67;1.67;0.00
77692;PMS5003;66984;47.404;18.836;2024-03-25T02:18:25;3.00;3.00;0.00
77692;PMS5003;66984;47.404;18.836;2024-03-25T02:19:26;2.00;2.00;0.00
77692;PMS5003;66984;47.404;18.836;2024-03-25T02:20:28;2.50;2.50;0.00
77692;PMS5003;66984;47.404;18.836;2024-03-25T02:21:29;2.00;2.00;0.00
77692;PMS5003;66984;47.404;18.836;2024-03-25T02:22:34;1.00;1.00;0.00
77692;PMS5003;66984;47.404;18.836;2024-03-25T02:23:37;1.00;1.00;0.00
77692;PMS5003;66984;47.404;18.836;2024-03-25T02:24:39;3.00;2.50;0.00
77692;PMS5003;66984;47.404;18.836;2024-03-25T02:25:42;3.00;2.00;0.00
77692;PMS5003;66984;47.404;18.836;2024-03-25T02:26:43;1.00;0.00;0.00
77692;PMS5003;66984;47.404;18.836;2024-03-25T02:27:44;3.00;2.00;0.00
77692;PMS5003;66984;47.404;18.836;2024-03-25T02:28:44;3.00;3.00;0.00
77692;PMS5003;66984;47.404;18.836;2024-03-25T02:29:45;2.00;2.00;0.00
77692;PMS5003;66984;47.404;18.836;2024-03-25T02:30:46;3.00;3.00;0.00
77692;PMS5003;66984;47.404;18.836;2024-03-25T02:31:47;3.00;1.00;0.00
77692;PMS5003;66984;47.404;18.836;2024-03-25T02:32:48;3.00;2.00;0.00
77692;PMS5003;66984;47.404;18.836;2024-03-25T02:33:49;3.00;2.00;0.00
77692;PMS5003;66984;47.404;18.836;2024-03-25T02:34:50;2.00;2.00;0.00
77692;PMS5003;66984;47.404;18.836;2024-03-25T02:35:52;2.00;2.00;0.00
77692;PMS5003;66984;47.404;18.836;2024-03-25T02:36:52;2.00;2.00;0.00
77692;PMS5003;66984;47.404;18.836;2024-03-25T02:37:55;2.00;2.00;0.00
77692;PMS5003;66984;47.404;18.836;2024-03-25T02:38:55;1.00;1.00;0.00
77692;PMS5003;66984;47.404;18.836;2024-03-25T02:39:57;1.33;1.00;0.00
77692;PMS5003;66984;47.404;18.836;2024-03-25T02:40:59;2.00;1.00;0.00
77692;PMS5003;66984;47.404;18.836;2024-03-25T02:42:00;2.00;2.00;0.00
77692;PMS5003;66984;47.404;18.836;2024-03-25T02:43:01;3.00;2.75;0.00
77692;PMS5003;66984;47.404;18.836;2024-03-25T02:44:02;1.00;1.00;0.00
77692;PMS5003;66984;47.404;18.836;2024-03-25T02:45:03;1.00;1.00;0.00
77692;PMS5003;66984;47.404;18.836;2024-03-25T02:46:05;1.00;1.00;0.00
77692;PMS5003;66984;47.404;18.836;2024-03-25T02:47:06;2.00;2.00;0.00
77692;PMS5003;66984;47.404;18.836;2024-03-25T02:48:07;1.00;1.00;0.00
77692;PMS5003;66984;47.404;18.836;2024-03-25T02:49:07;2.00;1.00;0.00
77692;PMS5003;66984;47.404;18.836;2024-03-25T02:50:08;2.00;1.75;0.00
77692;PMS5003;66984;47.404;18.836;2024-03-25T02:51:09;1.00;0.00;0.00
77692;PMS5003;66984;47.404;18.836;2024-03-25T02:52:10;1.00;1.00;0.00
77692;PMS5003;66984;47.404;18.836;2024-03-25T02:53:10;2.00;1.00;0.00
77692;PMS5003;66984;47.404;18.836;2024-03-25T02:54:11;2.00;2.00;0.00
77692;PMS5003;66984;47.404;18.836;2024-03-25T02:55:12;0.33;0.00;0.00
77692;PMS5003;66984;47.404;18.836;2024-03-25T02:56:13;1.00;0.00;0.00
77692;PMS5003;66984;47.404;18.836;2024-03-25T02:57:13;1.00;0.00;0.00
77692;PMS5003;66984;47.404;18.836;2024-03-25T02:58:14;0.00;0.00;0.00
77692;PMS5003;66984;47.404;18.836;2024-03-25T02:59:15;1.00;1.00;0.00
77692;PMS5003;66984;47.404;18.836;2024-03-25T03:00:15;3.00;2.33;0.00
77692;PMS5003;66984;47.404;18.836;2024-03-25T03:01:17;1.25;1.25;0.00
77692;PMS5003;66984;47.404;18.836;2024-03-25T03:02:18;1.00;1.00;0.00
77692;PMS5003;66984;47.404;18.836;2024-03-25T03:03:19;3.00;2.00;0.00
77692;PMS5003;66984;47.404;18.836;2024-03-25T03:04:20;3.00;1.67;0.00
77692;PMS5003;66984;47.404;18.836;2024-03-25T03:05:20;3.00;2.00;0.00
77692;PMS5003;66984;47.404;18.836;2024-03-25T03:06:22;2.00;2.00;0.00
77692;PMS5003;66984;47.404;18.836;2024-03-25T03:07:22;1.00;1.00;0.00
77692;PMS5003;66984;47.404;18.836;2024-03-25T03:08:23;0.00;0.00;0.00
77692;PMS5003;66984;47.404;18.836;2024-03-25T03:09:24;0.00;0.00;0.00
77692;PMS5003;66984;47.404;18.836;2024-03-25T03:10:25;1.00;0.00;0.00
77692;PMS5003;66984;47.404;18.836;2024-03-25T03:11:25;1.00;0.33;0.00
77692;PMS5003;66984;47.404;18.836;2024-03-25T03:12:26;2.00;2.00;0.00
77692;PMS5003;66984;47.404;18.836;2024-03-25T03:13:27;2.00;2.00;0.00
77692;PMS5003;66984;47.404;18.836;2024-03-25T03:14:27;1.00;0.00;0.00
77692;PMS5003;66984;47.404;18.836;2024-03-25T03:15:28;1.00;1.00;0.00
77692;PMS5003;66984;47.404;18.836;2024-03-25T03:16:29;2.00;2.00;0.00
77692;PMS5003;66984;47.404;18.836;2024-03-25T03:17:30;0.00;0.00;0.00
77692;PMS5003;66984;47.404;18.836;2024-03-25T03:18:31;0.00;0.00;0.00
77692;PMS5003;66984;47.404;18.836;2024-03-25T03:19:32;0.00;0.00;0.00
77692;PMS5003;66984;47.404;18.836;2024-03-25T03:20:33;0.00;0.00;0.00
77692;PMS5003;66984;47.404;18.836;2024-03-25T03:21:34;0.00;0.00;0.00
77692;PMS5003;66984;47.404;18.836;2024-03-25T03:22:35;1.00;1.00;0.00
77692;PMS5003;66984;47.404;18.836;2024-03-25T03:23:36;0.00;0.00;0.00
77692;PMS5003;66984;47.404;18.836;2024-03-25T03:24:37;1.00;0.00;0.00
77692;PMS5003;66984;47.404;18.836;2024-03-25T03:25:38;1.00;0.00;0.00
77692;PMS5003;66984;47.404;18.836;2024-03-25T03:26:38;1.00;0.00;0.00
77692;PMS5003;66984;47.404;18.836;2024-03-25T03:27:39;0.00;0.00;0.00
77692;PMS5003;66984;47.404;18.836;2024-03-25T03:28:40;0.75;0.75;0.00
77692;PMS5003;66984;47.404;18.836;2024-03-25T03:29:41;0.00;0.00;0.00
77692;PMS5003;66984;47.404;18.836;2024-03-25T03:30:41;0.00;0.00;0.00
77692;PMS5003;66984;47.404;18.836;2024-03-25T03:31:42;0.00;0.00;0.00
77692;PMS5003;66984;47.404;18.836;2024-03-25T03:32:43;0.00;0.00;0.00
77692;PMS5003;66984;47.404;18.836;2024-03-25T03:33:44;1.00;0.00;0.00
77692;PMS5003;66984;47.404;18.836;2024-03-25T03:34:45;0.67;0.00;0.00
77692;PMS5003;66984;47.404;18.836;2024-03-25T03:35:45;0.00;0.00;0.00
77692;PMS5003;66984;47.404;18.836;2024-03-25T03:36:46;0.00;0.00;0.00
77692;PMS5003;66984;47.404;18.836;2024-03-25T03:37:47;0.00;0.00;0.00
77692;PMS5003;66984;47.404;18.836;2024-03-25T03:38:49;0.00;0.00;0.00
77692;PMS5003;66984;47.404;18.836;2024-03-25T03:39:51;0.00;0.00;0.00
77692;PMS5003;66984;47.404;18.836;2024-03-25T03:40:58;0.00;0.00;0.00
77692;PMS5003;66984;47.404;18.836;2024-03-25T03:41:59;0.00;0.00;0.00
77692;PMS5003;66984;47.404;18.836;2024-03-25T03:43:00;0.00;0.00;0.00
77692;PMS5003;66984;47.404;18.836;2024-03-25T03:44:01;0.00;0.00;0.00
77692;PMS5003;66984;47.404;18.836;2024-03-25T03:45:02;0.00;0.00;0.00
77692;PMS5003;66984;47.404;18.836;2024-03-25T03:46:03;0.00;0.00;0.00
77692;PMS5003;66984;47.404;18.836;2024-03-25T03:47:04;0.00;0.00;0.00
77692;PMS5003;66984;47.404;18.836;2024-03-25T03:48:05;0.00;0.00;0.00
77692;PMS5003;66984;47.404;18.836;2024-03-25T03:49:06;0.50;0.50;0.00
77692;PMS5003;66984;47.404;18.836;2024-03-25T03:50:09;0.00;0.00;0.00
77692;PMS5003;66984;47.404;18.836;2024-03-25T03:51:10;0.00;0.00;0.00
77692;PMS5003;66984;47.404;18.836;2024-03-25T03:52:10;0.00;0.00;0.00
77692;PMS5003;66984;47.404;18.836;2024-03-25T03:53:11;0.00;0.00;0.00
77692;PMS5003;66984;47.404;18.836;2024-03-25T03:54:12;0.00;0.00;0.00
77692;PMS5003;66984;47.404;18.836;2024-03-25T03:55:13;0.00;0.00;0.00
77692;PMS5003;66984;47.404;18.836;2024-03-25T03:56:14;1.00;1.00;0.00
77692;PMS5003;66984;47.404;18.836;2024-03-25T03:57:14;2.00;0.00;0.00
77692;PMS5003;66984;47.404;18.836;2024-03-25T03:58:15;0.00;0.00;0.00
77692;PMS5003;66984;47.404;18.836;2024-03-25T03:59:16;0.00;0.00;0.00
77692;PMS5003;66984;47.404;18.836;2024-03-25T04:00:17;0.00;0.00;0.00
77692;PMS5003;66984;47.404;18.836;2024-03-25T04:01:18;1.00;0.00;0.00
77692;PMS5003;66984;47.404;18.836;2024-03-25T04:02:20;1.00;0.00;0.00
77692;PMS5003;66984;47.404;18.836;2024-03-25T04:03:21;0.00;0.00;0.00
77692;PMS5003;66984;47.404;18.836;2024-03-25T04:04:21;0.00;0.00;0.00
77692;PMS5003;66984;47.404;18.836;2024-03-25T04:05:22;0.00;0.00;0.00
77692;PMS5003;66984;47.404;18.836;2024-03-25T04:06:23;0.00;0.00;0.00
77692;PMS5003;66984;47.404;18.836;2024-03-25T04:07:23;0.00;0.00;0.00
77692;PMS5003;66984;47.404;18.836;2024-03-25T04:08:27;0.00;0.00;0.00
77692;PMS5003;66984;47.404;18.836;2024-03-25T04:09:28;1.00;1.00;0.00
77692;PMS5003;66984;47.404;18.836;2024-03-25T04:10:29;1.25;1.25;0.00
77692;PMS5003;66984;47.404;18.836;2024-03-25T04:11:30;4.00;4.00;0.00
77692;PMS5003;66984;47.404;18.836;2024-03-25T04:12:31;4.00;4.00;0.00
77692;PMS5003;66984;47.404;18.836;2024-03-25T04:13:33;6.00;6.00;0.00
77692;PMS5003;66984;47.404;18.836;2024-03-25T04:14:34;5.00;5.00;2.00
77692;PMS5003;66984;47.404;18.836;2024-03-25T04:15:35;6.00;6.00;2.00
77692;PMS5003;66984;47.404;18.836;2024-03-25T04:16:37;6.00;6.00;4.00
77692;PMS5003;66984;47.404;18.836;2024-03-25T04:17:37;6.00;6.00;3.00
77692;PMS5003;66984;47.404;18.836;2024-03-25T04:18:38;5.00;4.50;2.25
77692;PMS5003;66984;47.404;18.836;2024-03-25T04:19:42;4.00;4.00;2.00
77692;PMS5003;66984;47.404;18.836;2024-03-25T04:20:44;4.00;4.00;1.00
77692;PMS5003;66984;47.404;18.836;2024-03-25T04:21:45;4.00;3.00;1.00
77692;PMS5003;66984;47.404;18.836;2024-03-25T04:22:46;4.00;3.00;1.00
77692;PMS5003;66984;47.404;18.836;2024-03-25T04:23:48;3.50;3.25;1.00
77692;PMS5003;66984;47.404;18.836;2024-03-25T04:24:49;4.00;4.00;1.00
77692;PMS5003;66984;47.404;18.836;2024-03-25T04:25:50;3.67;3.67;0.00
77692;PMS5003;66984;47.404;18.836;2024-03-25T04:26:51;2.00;2.00;0.00
77692;PMS5003;66984;47.404;18.836;2024-03-25T04:27:52;2.00;2.00;1.00
77692;PMS5003;66984;47.404;18.836;2024-03-25T04:28:53;3.00;3.00;0.00
77692;PMS5003;66984;47.404;18.836;2024-03-25T04:29:53;2.33;2.00;0.00
77692;PMS5003;66984;47.404;18.836;2024-03-25T04:30:54;1.00;1.00;0.00
77692;PMS5003;66984;47.404;18.836;2024-03-25T04:31:55;2.00;2.00;0.00
77692;PMS5003;66984;47.404;18.836;2024-03-25T04:32:56;3.00;3.00;0.00
77692;PMS5003;66984;47.404;18.836;2024-03-25T04:33:58;0.00;0.00;0.00
77692;PMS5003;66984;47.404;18.836;2024-03-25T04:34:59;0.00;0.00;0.00
77692;PMS5003;66984;47.404;18.836;2024-03-25T04:36:00;2.00;2.00;0.00
77692;PMS5003;66984;47.404;18.836;2024-03-25T04:37:00;3.00;1.00;0.00
77692;PMS5003;66984;47.404;18.836;2024-03-25T04:38:01;1.00;1.00;0.00
77692;PMS5003;66984;47.404;18.836;2024-03-25T04:39:03;1.00;1.00;0.00
77692;PMS5003;66984;47.404;18.836;2024-03-25T04:40:04;2.00;2.00;0.00
77692;PMS5003;66984;47.404;18.836;2024-03-25T04:41:05;2.00;2.00;0.00
77692;PMS5003;66984;47.404;18.836;2024-03-25T04:42:06;1.00;1.00;0.00
77692;PMS5003;66984;47.404;18.836;2024-03-25T04:43:06;1.00;1.00;0.00
77692;PMS5003;66984;47.404;18.836;2024-03-25T04:44:07;0.00;0.00;0.00
77692;PMS5003;66984;47.404;18.836;2024-03-25T04:45:08;2.67;1.00;0.00
77692;PMS5003;66984;47.404;18.836;2024-03-25T04:46:09;2.75;2.00;0.00
77692;PMS5003;66984;47.404;18.836;2024-03-25T04:47:10;2.00;1.00;0.00
77692;PMS5003;66984;47.404;18.836;2024-03-25T04:48:10;2.00;2.00;0.00
77692;PMS5003;66984;47.404;18.836;2024-03-25T04:49:12;2.00;2.00;0.00
77692;PMS5003;66984;47.404;18.836;2024-03-25T04:50:12;1.75;1.75;0.00
77692;PMS5003;66984;47.404;18.836;2024-03-25T04:51:14;1.75;1.75;0.00
77692;PMS5003;66984;47.404;18.836;2024-03-25T04:52:15;1.75;1.75;0.00
77692;PMS5003;66984;47.404;18.836;2024-03-25T04:53:23;8.25;8.25;1.50
77692;PMS5003;66984;47.404;18.836;2024-03-25T04:54:24;12.00;11.00;5.00
77692;PMS5003;66984;47.404;18.836;2024-03-25T04:55:25;22.00;20.00;12.33
77692;PMS5003;66984;47.404;18.836;2024-03-25T04:56:25;22.25;21.75;12.50
77692;PMS5003;66984;47.404;18.836;2024-03-25T04:57:26;13.33;12.67;5.00
77692;PMS5003;66984;47.404;18.836;2024-03-25T04:58:27;4.00;4.00;1.00
77692;PMS5003;66984;47.404;18.836;2024-03-25T04:59:27;4.00;4.00;3.00
77692;PMS5003;66984;47.404;18.836;2024-03-25T05:00:28;6.67;5.00;3.00
77692;PMS5003;66984;47.404;18.836;2024-03-25T05:01:29;4.00;4.00;2.00
77692;PMS5003;66984;47.404;18.836;2024-03-25T05:02:30;3.00;3.00;1.00
77692;PMS5003;66984;47.404;18.836;2024-03-25T05:03:30;3.00;3.00;2.00
77692;PMS5003;66984;47.404;18.836;2024-03-25T05:04:31;1.00;1.00;0.00
77692;PMS5003;66984;47.404;18.836;2024-03-25T05:05:33;0.00;0.00;0.00
77692;PMS5003;66984;47.404;18.836;2024-03-25T05:06:33;0.00;0.00;0.00
77692;PMS5003;66984;47.404;18.836;2024-03-25T05:07:34;1.00;0.00;0.00
77692;PMS5003;66984;47.404;18.836;2024-03-25T05:08:35;1.67;1.67;0.00
77692;PMS5003;66984;47.404;18.836;2024-03-25T05:09:35;0.00;0.00;0.00
77692;PMS5003;66984;47.404;18.836;2024-03-25T05:10:36;0.00;0.00;0.00
77692;PMS5003;66984;47.404;18.836;2024-03-25T05:11:37;0.00;0.00;0.00
77692;PMS5003;66984;47.404;18.836;2024-03-25T05:12:38;0.00;0.00;0.00
77692;PMS5003;66984;47.404;18.836;2024-03-25T05:13:39;0.00;0.00;0.00
77692;PMS5003;66984;47.404;18.836;2024-03-25T05:14:39;0.00;0.00;0.00
77692;PMS5003;66984;47.404;18.836;2024-03-25T05:15:40;0.00;0.00;0.00
77692;PMS5003;66984;47.404;18.836;2024-03-25T05:16:41;0.00;0.00;0.00
77692;PMS5003;66984;47.404;18.836;2024-03-25T05:17:42;4.00;4.00;0.33
77692;PMS5003;66984;47.404;18.836;2024-03-25T05:18:42;5.00;5.00;2.00
77692;PMS5003;66984;47.404;18.836;2024-03-25T05:19:43;4.00;4.00;2.00
77692;PMS5003;66984;47.404;18.836;2024-03-25T05:20:44;6.00;6.00;4.00
77692;PMS5003;66984;47.404;18.836;2024-03-25T05:21:45;6.00;5.75;3.00
77692;PMS5003;66984;47.404;18.836;2024-03-25T05:22:46;8.50;8.00;4.00
77692;PMS5003;66984;47.404;18.836;2024-03-25T05:23:46;5.33;4.33;2.00
77692;PMS5003;66984;47.404;18.836;2024-03-25T05:24:48;4.00;4.00;2.00
77692;PMS5003;66984;47.404;18.836;2024-03-25T05:25:48;4.67;4.67;2.00
77692;PMS5003;66984;47.404;18.836;2024-03-25T05:26:49;2.33;2.33;1.00
77692;PMS5003;66984;47.404;18.836;2024-03-25T05:27:50;2.00;2.00;1.00
77692;PMS5003;66984;47.404;18.836;2024-03-25T05:28:53;1.00;1.00;0.00
77692;PMS5003;66984;47.404;18.836;2024-03-25T05:29:54;2.00;1.50;0.00
77692;PMS5003;66984;47.404;18.836;2024-03-25T05:30:55;2.00;2.00;0.00
77692;PMS5003;66984;47.404;18.836;2024-03-25T05:31:57;4.00;4.00;0.00
77692;PMS5003;66984;47.404;18.836;2024-03-25T05:32:59;2.00;2.00;0.00
77692;PMS5003;66984;47.404;18.836;2024-03-25T05:33:59;2.00;2.00;0.00
77692;PMS5003;66984;47.404;18.836;2024-03-25T05:35:03;3.00;3.00;0.00
77692;PMS5003;66984;47.404;18.836;2024-03-25T05:36:04;2.25;2.25;0.00
77692;PMS5003;66984;47.404;18.836;2024-03-25T05:37:05;4.00;3.50;0.00
77692;PMS5003;66984;47.404;18.836;2024-03-25T05:38:05;2.33;2.00;0.00
77692;PMS5003;66984;47.404;18.836;2024-03-25T05:39:06;0.67;0.67;0.00
77692;PMS5003;66984;47.404;18.836;2024-03-25T05:40:07;1.00;1.00;0.00
77692;PMS5003;66984;47.404;18.836;2024-03-25T05:41:11;0.00;0.00;0.00
77692;PMS5003;66984;47.404;18.836;2024-03-25T05:42:14;1.00;1.00;0.00
77692;PMS5003;66984;47.404;18.836;2024-03-25T05:43:15;0.50;0.50;0.00
77692;PMS5003;66984;47.404;18.836;2024-03-25T05:44:15;0.00;0.00;0.00
77692;PMS5003;66984;47.404;18.836;2024-03-25T05:45:16;0.00;0.00;0.00
77692;PMS5003;66984;47.404;18.836;2024-03-25T05:46:17;0.00;0.00;0.00
77692;PMS5003;66984;47.404;18.836;2024-03-25T05:47:18;0.00;0.00;0.00
77692;PMS5003;66984;47.404;18.836;2024-03-25T05:48:19;0.00;0.00;0.00
77692;PMS5003;66984;47.404;18.836;2024-03-25T05:49:20;0.00;0.00;0.00
77692;PMS5003;66984;47.404;18.836;2024-03-25T05:50:21;0.50;0.00;0.00
77692;PMS5003;66984;47.404;18.836;2024-03-25T05:51:22;2.00;2.00;0.00
77692;PMS5003;66984;47.404;18.836;2024-03-25T05:52:23;1.00;1.00;0.00